• Join FlightAware (Why Join?)
  • Login
  • US Flag 
Rudolph Flight #1: Scheduled 
10:57PM EST


 

Airport Tracker/Info


-or-


 

Live Flight TrackerFlight Track Log ✈ DAL695 ✈ 09-Jun-2013 ✈ KMCO - KJFK

Flight Track Log - Related Links

Times and Time Zones

All times are in EDT time to prevent confusion due to time zone crossing. See the DAL695 flight status page for this flight to view local times or setup timezone preferences in your user account.

Time Position Orientation Groundspeed Altitude Reporting Facility
EDT Latitude Longitude Course Direction KTS MPH feet Rate Location/Type
02:52PM 28.4000 -81.3000 221° Southwest 167 192 700  Level Orlando TRACON
02:53PM 28.3833 -81.3167 221° Southwest 186 214 2,100 1,740 Climbing Orlando TRACON
02:54PM 28.3333 -81.3833 230° Southwest 284 327 3,700 2,400 Climbing Orlando TRACON
02:55PM 28.3333 -81.4667 270° West 283 326 6,900 2,160 Climbing Orlando TRACON
02:56PM 28.3500 -81.5500 283° West 301 346 8,100 1,560 Climbing Orlando TRACON
02:56PM 28.4167 -81.6167 319° Northwest 299 344 9,900 960 Climbing Orlando TRACON
02:57PM 28.4667 -81.6833 310° West 303 349 10,000 120 Climbing Orlando TRACON
02:58PM 28.5167 -81.7333 319° Northwest 300 345 10,200 1,260 Climbing Orlando TRACON
03:00PM 28.5092 -81.9144 267° West 309 356 13,700 1,980 Climbing Jacksonville Center
03:01PM 28.4872 -82.0211 257° West 324 373 15,900 2,040 Climbing Jacksonville Center
03:02PM 28.4942 -82.1272 274° West 336 387 17,800 1,440 Climbing Jacksonville Center
03:03PM 28.5511 -82.2331 302° West 363 418 18,800 1,200 Climbing Jacksonville Center
03:04PM 28.6119 -82.3486 301° West 385 443 20,300 2,100 Climbing Jacksonville Center
03:05PM 28.6750 -82.4572 304° West 405 466 23,100 2,100 Climbing Jacksonville Center
03:06PM 28.7797 -82.5111 336° Northwest 386 444 24,600 1,380 Climbing Jacksonville Center
03:07PM 28.8861 -82.5558 340° North 402 463 25,900 600 Climbing Jacksonville Center
03:08PM 29.0053 -82.6078 339° North 422 486 25,900 120 Level Jacksonville Center
03:09PM 29.1306 -82.6478 344° North 447 514 26,200 540 Climbing Jacksonville Center
03:10PM 29.2622 -82.6642 354° North 455 524 27,000 540 Climbing Jacksonville Center
03:11PM 29.3936 -82.6708 357° North 468 539 27,300 540 Climbing Jacksonville Center
03:12PM 29.5147 -82.6850 354° North 480 552 28,100 900 Climbing Jacksonville Center
03:13PM 29.6483 -82.6989 355° North 480 552 29,100 1,020 Climbing Jacksonville Center
03:14PM 29.7842 -82.7083 357° North 480 552 30,200 1,080 Climbing Jacksonville Center
03:15PM 29.9156 -82.7200 356° North 480 552 31,300 1,260 Climbing Jacksonville Center
03:16PM 30.0514 -82.7175 North 480 552 32,800 1,200 Climbing Jacksonville Center
03:17PM 30.1808 -82.7075 North 474 545 33,800 960 Climbing Jacksonville Center
03:18PM 30.3103 -82.7000 North 474 545 34,800 600 Climbing Jacksonville Center
03:19PM 30.4356 -82.6853 North 463 533 35,000  Climbing Jacksonville Center
03:20PM 30.5647 -82.6272 21° North 454 522 34,900 -60 Descending Jacksonville Center
03:21PM 30.6647 -82.5256 41° Northeast 442 509 34,900  Level Jacksonville Center
03:22PM 30.7625 -82.4186 43° Northeast 466 536 35,000  Climbing Jacksonville Center
03:23PM 30.8581 -82.3142 43° Northeast 471 542 35,000  Level Jacksonville Center
03:24PM 30.9558 -82.2094 43° Northeast 476 548 35,000  Level Jacksonville Center
03:25PM 31.0553 -82.1019 43° Northeast 471 542 35,000 -60 Level Jacksonville Center
03:26PM 31.1486 -81.9992 43° Northeast 471 542 34,900 -60 Descending Jacksonville Center
03:27PM 31.2481 -81.8939 42° Northeast 471 542 34,900  Level Jacksonville Center
03:28PM 31.3456 -81.7978 40° Northeast 466 536 35,000  Climbing Jacksonville Center
03:29PM 31.4467 -81.6872 43° Northeast 466 536 35,000  Level Jacksonville Center
03:30PM 31.5461 -81.5883 40° Northeast 471 542 35,000  Level Jacksonville Center
03:31PM 31.6328 -81.4969 42° Northeast 471 542 35,000  Level Jacksonville Center
03:32PM 31.7442 -81.3853 40° Northeast 471 542 35,000  Level Jacksonville Center
03:33PM 31.8411 -81.2833 42° Northeast 476 548 35,000 -60 Level Jacksonville Center
03:34PM 31.9442 -81.1789 41° Northeast 476 548 34,900 -60 Descending Jacksonville Center
03:35PM 32.0428 -81.0789 41° Northeast 476 548 34,900  Level Jacksonville Center
03:36PM 32.1356 -80.9864 40° Northeast 476 548 35,000  Climbing Jacksonville Center
03:37PM 32.2444 -80.8711 42° Northeast 475 547 35,000  Level Jacksonville Center
03:38PM 32.3428 -80.7706 41° Northeast 470 541 35,000 -60 Level Jacksonville Center
03:39PM 32.4372 -80.6650 43° Northeast 465 535 34,900  Descending Jacksonville Center
03:40PM 32.5356 -80.5639 41° Northeast 460 529 35,000  Climbing Jacksonville Center
03:41PM 32.6317 -80.4628 42° Northeast 458 527 34,900 -60 Descending Jacksonville Center
03:42PM 32.7300 -80.3589 42° Northeast 457 526 34,900  Level Jacksonville Center
03:43PM 32.8239 -80.2575 42° Northeast 457 526 35,000  Climbing Jacksonville Center
03:44PM 32.9217 -80.1481 43° Northeast 457 526 35,000  Level Jacksonville Center
03:45PM 33.0217 -80.0386 43° Northeast 473 544 35,000 -60 Level Jacksonville Center
03:46PM 33.1236 -79.9361 40° Northeast 473 544 34,900 -60 Descending Jacksonville Center
03:47PM 33.2233 -79.8311 41° Northeast 473 544 34,900  Level Jacksonville Center
03:48PM 33.3058 -79.7064 52° Northeast 473 544 35,000  Climbing Jacksonville Center
03:49PM 33.3903 -79.5814 51° Northeast 473 544 35,000  Level Jacksonville Center
03:50PM 33.4725 -79.4564 52° Northeast 473 544 35,000 -60 Level Jacksonville Center
03:51PM 33.5567 -79.3336 51° Northeast 478 550 34,900 -60 Descending Jacksonville Center
03:52PM 33.6364 -79.2031 54° Northeast 478 550 34,900  Level Jacksonville Center
03:53PM 33.7164 -79.0825 51° Northeast 473 544 34,900  Level Jacksonville Center
03:54PM 33.8108 -78.9683 45° Northeast 468 539 34,900  Level Jacksonville Center
03:55PM 33.9225 -78.8733 35° Northeast 473 544 35,000  Climbing Jacksonville Center
03:58PM 34.1872 -78.6397 36° Northeast 498 573 35,000 -60 Level Washington Center
03:59PM 34.2983 -78.5408 36° Northeast 498 573 34,900 -60 Descending Washington Center
04:00PM 34.4092 -78.4414 37° Northeast 493 567 34,900  Level Washington Center
04:01PM 34.5200 -78.3444 36° Northeast 493 567 35,000  Climbing Washington Center
04:02PM 34.6308 -78.2422 37° Northeast 493 567 35,000  Level Washington Center
04:03PM 34.7392 -78.1447 36° Northeast 493 567 35,000  Level Washington Center
04:04PM 34.8350 -78.0517 39° Northeast 493 567 35,000  Level Washington Center
04:05PM 34.9456 -77.9483 37° Northeast 493 567 35,000  Level Washington Center
04:06PM 35.0539 -77.8503 37° Northeast 493 567 35,000  Level Washington Center
04:07PM 35.1644 -77.7467 37° Northeast 493 567 35,000  Level Washington Center
04:08PM 35.2747 -77.6453 37° Northeast 493 567 35,000  Level Washington Center
04:09PM 35.3847 -77.5461 36° Northeast 493 567 35,000  Level Washington Center
04:10PM 35.5181 -77.4294 35° Northeast 493 567 35,000  Level Washington Center
04:11PM 35.6303 -77.3322 35° Northeast 493 567 35,000  Level Washington Center
04:12PM 35.7422 -77.2350 35° Northeast 488 562 35,000  Level Washington Center
04:13PM 35.8625 -77.1272 36° Northeast 488 562 35,000  Level Washington Center
04:14PM 35.9783 -77.0269 35° Northeast 488 562 35,000 -60 Level Washington Center
04:15PM 36.0922 -76.9236 36° Northeast 493 567 34,900 -60 Descending Washington Center
04:16PM 36.2061 -76.8225 36° Northeast 493 567 34,900  Level Washington Center
04:17PM 36.3258 -76.7367 30° Northeast 498 573 34,900  Level Washington Center
04:18PM 36.4478 -76.6506 30° Northeast 498 573 34,900  Level Washington Center
04:19PM 36.5694 -76.5644 30° Northeast 493 567 35,000  Climbing Washington Center
04:20PM 36.6911 -76.4778 30° Northeast 493 567 35,000  Level Washington Center
04:21PM 36.8106 -76.3883 31° Northeast 493 567 35,000  Level Washington Center
04:22PM 36.9322 -76.2961 31° Northeast 493 567 35,000  Level Washington Center
04:23PM 37.0431 -76.2139 31° Northeast 498 573 35,000  Level Washington Center
04:24PM 37.1686 -76.1314 28° Northeast 498 573 35,000  Level Washington Center
04:25PM 37.2900 -76.0408 31° Northeast 503 579 35,000  Level Washington Center
04:26PM 37.4114 -75.9525 30° Northeast 508 585 35,000 -60 Level Washington Center
04:27PM 37.5325 -75.8617 31° Northeast 508 585 34,900 -60 Descending Washington Center
04:28PM 37.6517 -75.7703 31° Northeast 508 585 34,900  Level Washington Center
04:29PM 37.7747 -75.6836 29° Northeast 508 585 34,900  Level Washington Center
04:30PM 37.8978 -75.5917 31° Northeast 508 585 35,000  Climbing Washington Center
04:31PM 38.0208 -75.4969 31° Northeast 508 585 35,000  Level Washington Center
04:32PM 38.1458 -75.4122 28° Northeast 508 585 35,000 -60 Level Washington Center
04:33PM 38.2731 -75.3325 26° Northeast 503 579 34,900  Descending Washington Center
04:34PM 38.4103 -75.2392 28° Northeast 503 579 35,000  Climbing Washington Center
04:35PM 38.5372 -75.1617 26° Northeast 498 573 34,900 -60 Descending Washington Center
04:36PM 38.6661 -75.0758 27° Northeast 503 579 34,900  Level Washington Center
04:37PM 38.7931 -74.9950 26° Northeast 508 585 34,900 -60 Level Washington Center
04:38PM 38.9217 -74.9167 25° Northeast 508 585 34,800 -1,080 Descending Washington Center
04:39PM 39.0483 -74.8325 27° Northeast 508 585 32,800 -2,640 Descending Washington Center
04:40PM 39.1561 -74.7378 34° Northeast 513 590 29,500 -3,060 Descending Washington Center
04:42PM 39.3922 -74.4861 39° Northeast 481 554 23,300 -2,940 Descending New York Center
04:43PM 39.4917 -74.3728 41° Northeast 455 524 20,300 -2,700 Descending New York Center
04:44PM 39.5842 -74.2725 40° Northeast 450 518 18,100 -1,260 Descending New York Center
04:45PM 39.6769 -74.1694 41° Northeast 438 504 17,900 -1,200 Descending New York Center
04:46PM 39.7586 -74.0814 40° Northeast 427 491 15,700 -2,220 Descending New York Center
04:47PM 39.8467 -73.9883 39° Northeast 420 483 13,400 -2,040 Descending New York Center
04:48PM 39.9489 -73.9144 29° Northeast 383 441 11,700 -1,260 Descending New York Center
04:49PM 40.0275 -73.8558 30° Northeast 341 392 11,000 -720 Descending New York Center
04:50PM 40.0853 -73.7933 40° Northeast 301 346 10,300 -1,440 Descending New York Center
04:51PM 40.1667 -73.7333 29° Northeast 292 336 8,300 -1,920 Descending New York TRACON
04:52PM 40.2167 -73.7833 323° Northwest 267 307 6,600 -1,680 Descending New York TRACON
04:54PM 40.3167 -73.9000 318° Northwest 263 303 3,500 -1,200 Descending New York TRACON
04:55PM 40.4000 -73.9500 335° Northwest 258 297 3,000 -240 Descending New York TRACON
04:56PM 40.4500 -73.9500 360° North 223 257 3,000  Level New York TRACON
04:57PM 40.5000 -73.9667 346° North 190 219 3,000 -300 Level New York TRACON
04:58PM 40.5500 -73.9333 27° Northeast 200 230 2,400 -780 Descending New York TRACON
04:59PM 40.6000 -73.9000 27° Northeast 194 223 1,500 -780 Descending New York TRACON
05:00PM 40.6500 -73.8667 27° Northeast 154 177 900 -420 Descending New York TRACON
05:01PM 40.6667 -73.8333 57° Northeast 149 171 700 -240 Descending New York TRACON
05:04PM 40.6398 -73.7789 North  Level Estimated
05:11PM 40.6398 -73.7789 North  Level Estimated